map of REU home
REU - Airport
Location
City:  Reus, Catalonia, Spain
ICAO:LERS
IATA:REU

Details
Type:Airport (Aerodrome, Airfield)
Use:Public/Civil
Latitude:4108'51"N (41.147392)
Longitude:110'02"E (1.167172)
Datum:WGS 1984
Elevation:234 ft (71 m)
Variation:0.84E (WMM2015v2 magnetic declination)
0.15 annual change
Runways:2
Longest:8054 × 148 ft (2455 × 45 m), paved

Time
Time Zone:UTC+1 (DST+2)
Local Time:

Weather
METAR:LERS 041400Z 15006KT 090V200 CAVOK 13/M01 Q1025
TAF:LERS 040800Z 0409/0509 VRB05KT 9999 FEW040 TX13/0413Z TN03/0506Z

Related Locations
Nearby:
Farthest:CHT: 12213 mi / 19655 km
Waitangi [Tuuta], CIT, NZ

Find:

   beyond  
but within

Other Information
Maps:
NOTAMs:
Links:
Sources:

  
  • flag of Spain
  • flag of Catalonia
  

Sectional Chart

Flight Planning
at skyvector.com

Satellite Image

Google Maps Satellite view

 

Copyright © 2004-2019 Karl L. Swartz. All rights reserved.
The Great Circle Mapper name and logo are trademarks of the Great Circle Mapper.
All other trademarks mentioned herein belong to their respective owners.
Please see credits for attibutions and further copyright information.

  Follow gcmap on Facebook Follow gcmap on Twitter GCmap on LinkedIn

hCard Microformat

Geo Microformat